Time;durP1;ratioP1;P1;durP2;ratioP2;P2;SDS_P1;SDS_P2;PMS_P1;PMS_P2;Temp;Humidity;BMP_temperature;BMP_pressure;BME280_temperature;BME280_humidity;BME280_pressure;Samples;Min_cycle;Max_cycle;Signal;HPM_P1;HPM_P2
2021/07/16 00:01:06;;;;;;;24.13;14.95;;;;;;;19.55;80.70;98740.06;5053967;28;20041;-69
2021/07/16 00:03:32;;;;;;;17.63;13.80;;;;;;;19.54;80.70;98735.81;5052726;28;20123;-70
2021/07/16 00:05:58;;;;;;;25.10;15.27;;;;;;;19.53;81.21;98729.66;5035934;28;20077;-69
2021/07/16 00:08:24;;;;;;;23.35;15.77;;;;;;;19.53;81.29;98732.34;5036234;28;20090;-69
2021/07/16 00:10:50;;;;;;;29.00;15.50;;;;;;;19.50;81.41;98732.94;5052537;28;20435;-69
2021/07/16 00:13:15;;;;;;;23.90;15.38;;;;;;;19.50;81.31;98733.75;5069166;28;20087;-69
2021/07/16 00:15:42;;;;;;;19.73;15.15;;;;;;;19.49;81.22;98731.34;5036109;28;20045;-69
2021/07/16 00:18:11;;;;;;;20.10;13.35;;;;;;;19.59;81.22;98723.00;5069075;28;20041;-68
2021/07/16 00:20:37;;;;;;;21.58;15.63;;;;;;;19.56;81.18;98723.63;5052669;28;20063;-70
2021/07/16 00:23:03;;;;;;;22.48;15.57;;;;;;;19.51;81.17;98729.16;5054022;28;20393;-68
2021/07/16 00:25:29;;;;;;;24.85;18.38;;;;;;;19.47;81.93;98728.19;5036183;28;20489;-69
2021/07/16 00:27:55;;;;;;;24.55;17.65;;;;;;;19.47;82.11;98720.94;5023887;28;20046;-70
2021/07/16 00:30:21;;;;;;;25.23;18.67;;;;;;;19.54;82.33;98720.47;5049059;28;20071;-69
2021/07/16 00:32:46;;;;;;;29.98;20.80;;;;;;;19.52;82.38;98725.34;5033876;28;20107;-69
2021/07/16 00:35:12;;;;;;;35.97;20.83;;;;;;;19.45;82.25;98725.81;5032324;28;20148;-69
2021/07/16 00:37:38;;;;;;;28.05;19.63;;;;;;;19.40;82.54;98736.69;5039875;28;20102;-70
2021/07/16 00:40:10;;;;;;;32.25;21.00;;;;;;;19.33;82.90;98730.22;5053472;28;20041;-69
2021/07/16 00:42:36;;;;;;;32.65;21.33;;;;;;;19.27;83.10;98733.03;5051183;28;20513;-69
2021/07/16 00:45:11;;;;;;;27.92;19.05;;;;;;;19.27;82.80;98732.25;5035832;28;20044;-69
2021/07/16 00:47:39;;;;;;;30.42;22.48;;;;;;;19.28;83.16;98736.50;5035319;28;20136;-68
2021/07/16 00:50:15;;;;;;;25.83;19.70;;;;;;;19.32;82.76;98726.72;5068710;28;20049;-68
2021/07/16 00:52:43;;;;;;;20.80;17.15;;;;;;;19.31;82.92;98718.97;5048053;28;20037;-68
2021/07/16 00:55:09;;;;;;;20.35;14.75;;;;;;;19.36;82.43;98724.22;5015542;28;20056;-68
2021/07/16 00:57:36;;;;;;;23.48;16.30;;;;;;;19.37;82.67;98725.78;5015152;28;20046;-67
2021/07/16 01:00:05;;;;;;;18.60;14.85;;;;;;;19.36;82.36;98730.38;5015291;28;20045;-69
2021/07/16 01:02:31;;;;;;;15.82;13.95;;;;;;;19.38;82.31;98727.34;5031096;28;20587;-69
2021/07/16 01:04:57;;;;;;;21.52;14.30;;;;;;;19.32;82.47;98726.72;5033009;28;20038;-68
2021/07/16 01:07:23;;;;;;;18.85;14.27;;;;;;;19.33;82.64;98727.53;5031569;28;20044;-68
2021/07/16 01:09:51;;;;;;;17.58;13.55;;;;;;;19.35;82.74;98730.66;5031532;28;20076;-69
2021/07/16 01:12:17;;;;;;;18.85;13.60;;;;;;;19.33;82.08;98717.56;5031565;28;20049;-68
2021/07/16 01:14:43;;;;;;;14.05;11.82;;;;;;;19.36;81.93;98716.16;5014934;28;20049;-68
2021/07/16 01:17:09;;;;;;;14.43;11.18;;;;;;;19.45;81.14;98725.03;5032494;28;20427;-68
2021/07/16 01:19:38;;;;;;;13.13;11.45;;;;;;;19.52;80.86;98719.97;5032637;28;20052;-68
2021/07/16 01:22:08;;;;;;;19.77;12.10;;;;;;;19.60;80.47;98721.91;5031270;28;20053;-69
2021/07/16 01:24:34;;;;;;;13.95;11.88;;;;;;;19.73;80.03;98721.00;5032774;28;20092;-68
2021/07/16 01:27:00;;;;;;;22.90;15.45;;;;;;;19.84;79.45;98720.69;5014777;28;20157;-69
2021/07/16 01:29:26;;;;;;;63.50;36.90;;;;;;;19.94;78.82;98718.50;5031394;28;20124;-67
2021/07/16 01:31:52;;;;;;;75.90;41.80;;;;;;;20.07;78.38;98726.75;5031548;28;20041;-69
2021/07/16 01:34:18;;;;;;;51.15;29.60;;;;;;;20.17;77.74;98715.66;5002548;28;20045;-68
2021/07/16 01:36:44;;;;;;;47.70;28.90;;;;;;;20.34;77.33;98723.72;5014829;28;20411;-70
2021/07/16 01:39:10;;;;;;;31.77;20.98;;;;;;;20.48;76.63;98715.47;5034013;28;20056;-69
2021/07/16 01:41:36;;;;;;;37.85;24.20;;;;;;;20.69;76.30;98721.00;5052440;28;20059;-68
2021/07/16 01:44:04;;;;;;;23.13;15.68;;;;;;;20.87;75.59;98717.16;5034250;28;20490;-69
2021/07/16 01:46:30;;;;;;;21.38;17.13;;;;;;;21.07;74.66;98721.06;5052056;28;20545;-68
2021/07/16 01:48:55;;;;;;;24.73;16.98;;;;;;;21.28;73.92;98720.34;5017531;28;20132;-68
2021/07/16 01:51:21;;;;;;;19.65;15.25;;;;;;;21.53;73.19;98724.84;5051985;28;20140;-69
2021/07/16 01:53:47;;;;;;;19.67;14.40;;;;;;;21.76;72.16;98725.31;5033888;28;20124;-69
2021/07/16 01:56:13;;;;;;;17.27;13.63;;;;;;;22.02;71.47;98726.28;5017572;28;20048;-68
2021/07/16 01:58:39;;;;;;;15.70;13.75;;;;;;;22.32;70.23;98725.09;5050274;28;20064;-67
2021/07/16 02:01:13;;;;;;;15.05;13.27;;;;;;;22.58;69.17;98727.56;5051842;28;20044;-69
2021/07/16 02:03:40;;;;;;;16.52;13.20;;;;;;;22.82;68.05;98724.13;5034196;28;20041;-68
2021/07/16 02:06:05;;;;;;;31.80;24.95;;;;;;;23.04;67.67;98727.59;5050363;28;20036;-68
2021/07/16 02:08:31;;;;;;;35.70;25.98;;;;;;;23.31;66.86;98724.22;5033546;28;20044;-68
2021/07/16 02:10:57;;;;;;;34.70;26.23;;;;;;;23.56;65.69;98725.00;5051052;28;20131;-68
2021/07/16 02:13:24;;;;;;;30.80;22.05;;;;;;;23.85;64.69;98715.06;5050144;28;20041;-68
2021/07/16 02:15:51;;;;;;;25.02;19.40;;;;;;;24.18;63.74;98725.69;5051496;28;20040;-69
2021/07/16 02:18:18;;;;;;;26.08;18.40;;;;;;;24.43;62.71;98720.22;5033567;28;20037;-68
2021/07/16 02:20:44;;;;;;;24.40;17.17;;;;;;;24.60;62.03;98713.69;5050477;28;20068;-68
2021/07/16 02:23:12;;;;;;;23.02;20.65;;;;;;;24.73;61.28;98717.13;5033546;28;20515;-66
2021/07/16 02:25:39;;;;;;;22.67;20.67;;;;;;;24.86;61.14;98718.63;5051383;28;20037;-66
2021/07/16 02:28:09;;;;;;;21.33;17.75;;;;;;;24.97;60.53;98719.66;5033763;28;20057;-68
2021/07/16 02:30:35;;;;;;;21.95;19.15;;;;;;;25.14;60.09;98724.78;5033510;28;20454;-67
2021/07/16 02:33:02;;;;;;;33.88;29.67;;;;;;;25.27;59.52;98716.56;5033279;28;20045;-68
2021/07/16 02:35:30;;;;;;;34.90;31.30;;;;;;;25.33;59.42;98712.44;5033899;28;20371;-70
2021/07/16 02:37:56;;;;;;;29.27;26.90;;;;;;;25.46;58.63;98711.19;5033195;28;20114;-68
2021/07/16 02:40:22;;;;;;;16.88;15.02;;;;;;;25.60;58.36;98710.75;5050089;28;20498;-70
2021/07/16 02:42:48;;;;;;;15.80;11.40;;;;;;;25.69;58.02;98708.59;5033071;28;20045;-69
2021/07/16 02:45:16;;;;;;;14.48;10.43;;;;;;;25.82;57.13;98720.97;5033663;28;20047;-70
2021/07/16 02:47:42;;;;;;;11.60;10.50;;;;;;;25.83;57.55;98716.31;5049734;28;20136;-69
2021/07/16 02:50:13;;;;;;;17.98;10.38;;;;;;;26.02;57.02;98720.97;5051361;28;20128;-69
2021/07/16 02:52:42;;;;;;;10.75;9.50;;;;;;;26.18;56.32;98716.25;5049964;28;20041;-69
2021/07/16 02:55:09;;;;;;;14.38;10.65;;;;;;;26.09;56.51;98726.56;5049795;28;20067;-69
2021/07/16 02:57:35;;;;;;;11.30;10.07;;;;;;;26.30;56.04;98728.91;5032986;28;20088;-69
2021/07/16 03:00:08;;;;;;;12.95;9.80;;;;;;;26.47;55.17;98728.47;5016862;28;20418;-69
2021/07/16 03:02:42;;;;;;;12.13;9.57;;;;;;;26.78;54.76;98734.09;5046347;28;20037;-69
2021/07/16 03:05:09;;;;;;;16.42;9.50;;;;;;;26.99;54.63;98730.97;5031073;28;20132;-70
2021/07/16 03:07:36;;;;;;;15.32;10.27;;;;;;;27.14;53.74;98730.06;5029631;28;20041;-69
2021/07/16 03:10:07;;;;;;;11.27;9.38;;;;;;;27.29;53.55;98731.88;5046366;28;20042;-69
2021/07/16 03:12:33;;;;;;;11.77;9.43;;;;;;;27.50;53.24;98738.78;5035585;28;20048;-71
2021/07/16 03:14:59;;;;;;;11.20;9.82;;;;;;;27.47;52.53;98734.88;5049777;28;20041;-69
2021/07/16 03:17:24;;;;;;;11.93;10.48;;;;;;;27.63;52.95;98740.94;5050875;28;20052;-69
2021/07/16 03:19:50;;;;;;;12.52;10.20;;;;;;;27.83;52.17;98741.66;5050912;28;20052;-69
2021/07/16 03:22:16;;;;;;;14.38;12.98;;;;;;;27.81;51.97;98737.72;5049336;28;20059;-69
2021/07/16 03:24:42;;;;;;;18.42;12.75;;;;;;;27.73;52.42;98744.19;5036437;28;20041;-69
2021/07/16 03:27:08;;;;;;;13.32;11.85;;;;;;;27.87;51.97;98738.19;5037261;28;20509;-68
2021/07/16 03:29:34;;;;;;;12.93;11.50;;;;;;;28.05;51.79;98740.00;5033744;28;20072;-69
2021/07/16 03:32:00;;;;;;;15.38;11.57;;;;;;;28.24;51.09;98741.00;5035457;28;20128;-69
2021/07/16 03:34:25;;;;;;;13.88;11.65;;;;;;;28.30;50.70;98750.44;5033589;28;20202;-68
2021/07/16 03:36:51;;;;;;;11.98;10.77;;;;;;;28.25;50.53;98743.34;5036984;28;20056;-70
2021/07/16 03:39:17;;;;;;;14.38;11.68;;;;;;;28.24;50.94;98747.25;5054777;28;20041;-69
2021/07/16 03:41:43;;;;;;;15.68;10.65;;;;;;;28.23;51.34;98747.59;5054929;28;20414;-70
2021/07/16 03:44:11;;;;;;;14.80;11.55;;;;;;;28.42;51.29;98744.75;5033445;28;20180;-69
2021/07/16 03:46:37;;;;;;;14.40;11.15;;;;;;;28.48;50.67;98754.16;5000704;28;20041;-68
2021/07/16 03:49:03;;;;;;;15.43;11.38;;;;;;;28.60;50.24;98742.22;5025777;28;20091;-68
2021/07/16 03:51:29;;;;;;;16.48;11.30;;;;;;;28.78;50.52;98747.06;5054614;28;20045;-69
2021/07/16 03:53:55;;;;;;;13.00;10.73;;;;;;;28.93;50.27;98751.50;5069320;28;20037;-70
2021/07/16 03:56:21;;;;;;;13.68;11.10;;;;;;;28.87;49.63;98763.91;5053167;28;20468;-70
2021/07/16 03:58:47;;;;;;;15.00;11.20;;;;;;;29.01;49.94;98760.53;5049466;28;20061;-70
2021/07/16 04:01:14;;;;;;;13.63;10.85;;;;;;;29.08;49.39;98757.91;5033307;28;20049;-70
2021/07/16 04:03:41;;;;;;;15.88;12.35;;;;;;;29.01;49.88;98757.81;5051336;28;20045;-69
2021/07/16 04:06:08;;;;;;;12.90;10.70;;;;;;;29.13;50.25;98769.25;5053190;28;20064;-70
2021/07/16 04:08:36;;;;;;;11.20;9.98;;;;;;;29.19;49.53;98759.56;5036422;28;20037;-69
2021/07/16 04:11:03;;;;;;;13.27;10.85;;;;;;;29.26;49.85;98758.06;5053035;28;20090;-69
2021/07/16 04:13:29;;;;;;;12.43;10.07;;;;;;;29.26;49.44;98758.81;5036296;28;20094;-68
2021/07/16 04:15:55;;;;;;;11.05;9.95;;;;;;;29.22;49.01;98763.47;5052854;28;20501;-69
2021/07/16 04:18:21;;;;;;;14.05;10.00;;;;;;;29.15;49.30;98761.50;5054090;28;20500;-69
2021/07/16 04:20:46;;;;;;;12.25;10.95;;;;;;;29.18;49.59;98762.69;5019570;28;20573;-69
2021/07/16 04:23:12;;;;;;;13.43;10.57;;;;;;;29.26;49.62;98764.28;5052717;28;20045;-68
2021/07/16 04:25:38;;;;;;;11.68;10.48;;;;;;;29.37;49.78;98762.44;5052624;28;20041;-69
2021/07/16 04:28:04;;;;;;;15.95;9.80;;;;;;;29.50;49.95;98754.72;5036378;28;20045;-66
2021/07/16 04:30:32;;;;;;;12.90;10.40;;;;;;;29.71;49.47;98762.31;5053731;28;20342;-70
2021/07/16 04:33:01;;;;;;;11.57;10.38;;;;;;;29.78;49.12;98753.38;5019838;28;20520;-69
2021/07/16 04:35:28;;;;;;;13.35;10.25;;;;;;;29.61;50.32;98761.03;5053009;28;20133;-69
2021/07/16 04:37:54;;;;;;;13.63;10.82;;;;;;;29.67;49.59;98760.72;5069361;28;20072;-70
2021/07/16 04:40:22;;;;;;;11.13;9.90;;;;;;;29.76;49.87;98761.94;5049122;28;20498;-70
2021/07/16 04:42:55;;;;;;;13.43;10.80;;;;;;;29.92;49.34;98769.06;5032742;28;20091;-69
2021/07/16 04:45:21;;;;;;;13.30;11.10;;;;;;;29.96;49.02;98775.34;5054219;28;20037;-69
2021/07/16 04:47:47;;;;;;;14.35;10.50;;;;;;;29.95;49.25;98781.97;5052446;28;20056;-71
2021/07/16 04:50:13;;;;;;;13.73;10.40;;;;;;;29.97;49.12;98769.47;5053361;28;20060;-69
2021/07/16 04:52:42;;;;;;;11.88;10.07;;;;;;;30.14;49.33;98781.66;5035586;28;20437;-69
2021/07/16 04:55:10;;;;;;;12.80;10.98;;;;;;;30.36;48.61;98774.38;5035350;28;20066;-68
2021/07/16 04:57:37;;;;;;;12.80;10.45;;;;;;;30.34;48.31;98776.72;5051788;28;20045;-67
2021/07/16 05:00:06;;;;;;;12.82;10.38;;;;;;;30.39;48.55;98773.63;5035647;28;20045;-67
2021/07/16 05:02:32;;;;;;;11.82;10.25;;;;;;;30.49;48.83;98781.06;5068295;28;20047;-71
2021/07/16 05:04:58;;;;;;;15.02;10.63;;;;;;;30.59;48.64;98782.28;5051931;28;20036;-70
2021/07/16 05:07:24;;;;;;;12.32;10.00;;;;;;;30.73;48.30;98779.56;5031859;28;20041;-71
2021/07/16 05:09:50;;;;;;;10.90;9.75;;;;;;;30.63;47.44;98785.03;5015517;28;20049;-70
2021/07/16 05:12:16;;;;;;;10.93;9.30;;;;;;;30.44;48.53;98775.94;5047775;28;20049;-71
2021/07/16 05:14:42;;;;;;;13.35;10.07;;;;;;;30.14;48.82;98786.34;5052862;28;20047;-71
2021/07/16 05:17:08;;;;;;;14.70;9.82;;;;;;;29.87;50.22;98786.59;5048078;28;20338;-70
2021/07/16 05:19:34;;;;;;;14.05;9.75;;;;;;;29.89;49.88;98789.75;5031404;28;20033;-70
2021/07/16 05:22:01;;;;;;;10.88;9.48;;;;;;;29.85;49.65;98783.47;5025237;28;20049;-70
2021/07/16 05:24:28;;;;;;;14.02;10.43;;;;;;;29.74;50.78;98783.41;5034900;28;20083;-71
2021/07/16 05:26:54;;;;;;;11.45;10.20;;;;;;;29.61;49.54;98785.63;5047908;28;20041;-70
2021/07/16 05:29:20;;;;;;;11.02;9.93;;;;;;;29.58;50.62;98786.38;5014899;28;20049;-70
2021/07/16 05:31:46;;;;;;;14.13;10.00;;;;;;;29.48;52.23;98787.09;5037146;28;20106;-70
2021/07/16 05:34:12;;;;;;;13.95;10.85;;;;;;;29.31;52.55;98785.78;5051013;28;20056;-69
2021/07/16 05:36:38;;;;;;;11.77;10.43;;;;;;;29.16;52.96;98786.81;5018057;28;20162;-69
2021/07/16 05:39:05;;;;;;;13.02;10.38;;;;;;;29.07;53.11;98783.63;5034381;28;20098;-70
2021/07/16 05:41:32;;;;;;;13.13;10.93;;;;;;;28.81;53.50;98782.56;5052196;28;20045;-70
2021/07/16 05:43:57;;;;;;;13.38;10.55;;;;;;;28.67;53.11;98779.69;5023131;28;20088;-69
2021/07/16 05:46:26;;;;;;;16.02;10.20;;;;;;;28.64;52.90;98789.38;5046861;28;20041;-70
2021/07/16 05:48:52;;;;;;;14.15;11.30;;;;;;;28.64;53.45;98783.16;5050689;28;20045;-68
2021/07/16 05:51:18;;;;;;;12.40;11.10;;;;;;;28.55;53.09;98779.94;5051050;28;20051;-69
2021/07/16 05:53:44;;;;;;;11.38;10.30;;;;;;;28.48;53.79;98781.44;5047555;28;20044;-71
2021/07/16 05:56:10;;;;;;;12.70;11.10;;;;;;;28.53;55.41;98780.28;5032078;28;20140;-68
2021/07/16 05:58:36;;;;;;;14.82;11.65;;;;;;;28.41;54.37;98784.06;5061247;28;20040;-70
2021/07/16 06:01:01;;;;;;;11.88;10.77;;;;;;;28.33;55.05;98779.66;5050956;28;20057;-70
2021/07/16 06:03:28;;;;;;;15.13;11.85;;;;;;;28.24;55.62;98782.66;5043272;28;20145;-67
2021/07/16 06:05:53;;;;;;;11.70;10.55;;;;;;;28.22;56.60;98776.78;5040215;28;20033;-70
2021/07/16 06:08:19;;;;;;;12.95;10.93;;;;;;;28.30;55.91;98781.19;5037737;28;20051;-69
2021/07/16 06:10:45;;;;;;;12.07;10.80;;;;;;;28.34;55.41;98786.66;5048441;28;20091;-70
2021/07/16 06:13:11;;;;;;;12.30;11.10;;;;;;;28.33;55.10;98789.78;5046968;28;20052;-69
2021/07/16 06:15:37;;;;;;;15.05;11.63;;;;;;;28.30;55.38;98783.13;5031489;28;20498;-70
2021/07/16 06:18:02;;;;;;;13.02;11.52;;;;;;;28.28;55.92;98777.25;5063318;28;20049;-69
2021/07/16 06:20:28;;;;;;;17.15;11.25;;;;;;;28.38;55.50;98778.53;5024952;28;20128;-69
2021/07/16 06:22:54;;;;;;;12.20;10.85;;;;;;;28.33;54.67;98778.88;5010925;28;20490;-69
2021/07/16 06:25:20;;;;;;;12.13;11.00;;;;;;;28.31;55.18;98782.75;5047064;28;20160;-71
2021/07/16 06:27:47;;;;;;;11.75;10.55;;;;;;;28.35;55.79;98776.56;5047549;28;20045;-68
2021/07/16 06:30:15;;;;;;;15.55;11.15;;;;;;;28.40;55.25;98779.72;4997481;28;20120;-70
2021/07/16 06:32:41;;;;;;;12.50;11.20;;;;;;;28.43;55.89;98776.28;5045492;28;20077;-70
2021/07/16 06:35:08;;;;;;;12.93;11.27;;;;;;;28.52;54.73;98770.56;5009430;28;20041;-71
2021/07/16 06:37:35;;;;;;;12.90;10.70;;;;;;;28.55;54.21;98775.25;4998482;28;20049;-69
2021/07/16 06:40:03;;;;;;;12.75;10.93;;;;;;;28.49;53.86;98782.97;5026887;28;20038;-71
2021/07/16 06:42:29;;;;;;;12.40;10.70;;;;;;;28.50;53.75;98784.56;5042712;28;20045;-70
2021/07/16 06:44:55;;;;;;;11.98;10.68;;;;;;;28.53;53.39;98772.13;5041416;28;20041;-70
2021/07/16 06:47:21;;;;;;;13.02;10.68;;;;;;;28.60;53.70;98771.44;5049439;28;20064;-70
2021/07/16 06:49:47;;;;;;;12.60;10.60;;;;;;;28.61;53.14;98773.00;5047132;28;20044;-70
2021/07/16 06:52:13;;;;;;;12.25;11.02;;;;;;;28.56;53.36;98779.56;5048994;28;20045;-70
2021/07/16 06:54:40;;;;;;;11.90;10.77;;;;;;;28.58;53.17;98779.19;5047056;28;20099;-70
2021/07/16 06:57:06;;;;;;;12.40;10.98;;;;;;;28.66;53.25;98776.16;5013976;28;20055;-69
2021/07/16 06:59:31;;;;;;;11.60;10.50;;;;;;;28.62;52.92;98774.56;5043511;28;20057;-70
2021/07/16 07:01:57;;;;;;;12.55;10.98;;;;;;;28.68;52.71;98778.53;5028452;28;20087;-70
2021/07/16 07:04:23;;;;;;;11.32;10.23;;;;;;;28.64;51.10;98775.75;5030357;28;20320;-71
2021/07/16 07:06:50;;;;;;;11.77;10.57;;;;;;;28.73;50.96;98770.78;5003963;28;20056;-68
2021/07/16 07:09:17;;;;;;;11.70;10.60;;;;;;;28.79;50.59;98778.63;5026907;28;20047;-70
2021/07/16 07:11:43;;;;;;;11.38;10.18;;;;;;;28.99;49.36;98771.81;5048509;28;20044;-68
2021/07/16 07:14:09;;;;;;;12.02;10.82;;;;;;;29.09;49.76;98775.81;5029798;28;20045;-69
2021/07/16 07:16:34;;;;;;;11.82;10.32;;;;;;;29.18;50.15;98770.88;5030382;28;20132;-68
2021/07/16 07:19:02;;;;;;;11.95;10.65;;;;;;;29.09;49.51;98776.63;5062857;28;20445;-69
2021/07/16 07:21:27;;;;;;;12.82;11.52;;;;;;;28.95;50.91;98779.19;5046385;28;20423;-68
2021/07/16 07:23:53;;;;;;;11.50;10.40;;;;;;;28.91;49.67;98762.00;5046653;28;20055;-68
2021/07/16 07:26:19;;;;;;;12.00;10.90;;;;;;;28.89;49.67;98772.53;5037781;28;20060;-68
2021/07/16 07:28:45;;;;;;;11.50;10.23;;;;;;;28.93;49.23;98768.66;5028020;28;20045;-68
2021/07/16 07:31:11;;;;;;;11.57;10.43;;;;;;;28.95;49.04;98765.56;5040110;28;20131;-70
2021/07/16 07:33:37;;;;;;;12.65;11.35;;;;;;;28.95;49.22;98769.06;5028812;28;20398;-70
2021/07/16 07:36:03;;;;;;;17.67;11.98;;;;;;;29.05;49.47;98770.34;5028440;28;20109;-70
2021/07/16 07:38:32;;;;;;;13.02;11.73;;;;;;;29.14;50.37;98765.34;5063393;28;20045;-69
2021/07/16 07:40:59;;;;;;;11.27;10.25;;;;;;;29.16;47.70;98773.97;5061560;28;20033;-69
2021/07/16 07:43:24;;;;;;;12.82;11.68;;;;;;;29.18;50.75;98776.31;5062162;28;20041;-68
2021/07/16 07:45:50;;;;;;;12.63;11.40;;;;;;;29.17;49.55;98761.88;5046626;28;20037;-69
2021/07/16 07:48:16;;;;;;;13.32;12.02;;;;;;;29.28;49.18;98769.38;5046959;28;20095;-69
2021/07/16 07:50:42;;;;;;;13.52;11.82;;;;;;;29.46;49.63;98773.03;5046189;28;20047;-67
2021/07/16 07:53:07;;;;;;;12.02;10.93;;;;;;;29.55;48.30;98776.22;5045646;28;20541;-69
2021/07/16 07:55:33;;;;;;;11.70;10.60;;;;;;;29.55;48.12;98772.69;5046236;28;20068;-68
2021/07/16 07:57:59;;;;;;;12.85;11.40;;;;;;;29.57;48.98;98779.34;5045834;28;20065;-69
2021/07/16 08:00:26;;;;;;;13.48;11.95;;;;;;;29.57;49.07;98773.91;5045731;28;20405;-71
2021/07/16 08:02:54;;;;;;;12.88;11.68;;;;;;;29.51;48.72;98785.56;5029541;28;20037;-69
2021/07/16 08:05:20;;;;;;;12.60;11.40;;;;;;;29.53;48.55;98775.81;5048506;28;20048;-69
2021/07/16 08:07:46;;;;;;;15.60;11.27;;;;;;;29.73;49.40;98773.63;5049335;28;20053;-70
2021/07/16 08:10:17;;;;;;;12.75;11.55;;;;;;;29.92;47.76;98771.81;5049264;28;20051;-71
2021/07/16 08:12:43;;;;;;;13.05;11.82;;;;;;;29.99;47.38;98772.63;5014382;28;20052;-69
2021/07/16 08:15:11;;;;;;;12.30;11.10;;;;;;;29.97;45.68;98780.41;5031032;28;20183;-69
2021/07/16 08:17:37;;;;;;;11.50;10.43;;;;;;;29.93;45.62;98774.16;5043557;28;20045;-70
2021/07/16 08:20:08;;;;;;;11.35;9.93;;;;;;;29.85;46.09;98775.25;5051185;28;20509;-69
2021/07/16 08:22:35;;;;;;;10.52;9.63;;;;;;;29.83;44.55;98770.19;5031410;28;20052;-70
2021/07/16 08:25:02;;;;;;;11.75;10.57;;;;;;;29.89;45.09;98773.34;5030481;28;20123;-70
2021/07/16 08:27:28;;;;;;;11.63;10.52;;;;;;;30.06;45.58;98769.94;5005756;28;20048;-70
2021/07/16 08:29:54;;;;;;;11.75;10.63;;;;;;;30.18;45.49;98782.47;5035277;28;20049;-69
2021/07/16 08:32:20;;;;;;;11.32;10.32;;;;;;;30.01;44.38;98772.25;5051710;28;20045;-71
2021/07/16 08:34:45;;;;;;;11.35;10.15;;;;;;;29.94;44.92;98772.19;5049944;28;20043;-69
2021/07/16 08:37:11;;;;;;;10.98;9.90;;;;;;;30.03;44.86;98769.88;5052184;28;20123;-69
2021/07/16 08:39:37;;;;;;;10.90;9.90;;;;;;;30.01;46.15;98775.75;5051726;28;20465;-70
2021/07/16 08:42:03;;;;;;;11.93;9.93;;;;;;;30.17;44.71;98772.69;5048822;28;20410;-68
2021/07/16 08:44:30;;;;;;;10.73;9.63;;;;;;;30.24;42.96;98769.25;5049605;28;20342;-69
2021/07/16 08:47:00;;;;;;;12.77;9.63;;;;;;;30.28;43.79;98770.06;5049698;28;20049;-69
2021/07/16 08:49:26;;;;;;;9.13;8.32;;;;;;;30.31;43.29;98766.53;5050383;28;20045;-69
2021/07/16 08:51:53;;;;;;;9.73;8.82;;;;;;;30.13;43.05;98787.53;5034620;28;20064;-70
2021/07/16 08:54:19;;;;;;;10.90;9.90;;;;;;;30.06;42.78;98775.41;5046791;28;20428;-69
2021/07/16 08:56:45;;;;;;;10.48;9.38;;;;;;;30.15;43.51;98776.97;5031297;28;20057;-69
2021/07/16 08:59:14;;;;;;;13.30;8.82;;;;;;;30.13;43.21;98776.59;5061884;28;20101;-68
2021/07/16 09:01:43;;;;;;;;;;;;;;;30.15;43.29;98774.25;5016523;28;20114;-69
2021/07/16 09:04:10;;;;;;;9.73;8.75;;;;;;;30.13;42.07;98769.19;5048001;28;20297;-69
2021/07/16 09:06:50;;;;;;;9.50;8.60;;;;;;;30.10;41.04;98776.19;5051279;28;20105;-70
2021/07/16 09:09:38;;;;;;;9.65;8.75;;;;;;;30.24;42.12;98780.97;5030947;28;20403;-69
2021/07/16 09:12:08;;;;;;;9.45;8.45;;;;;;;30.42;41.55;98770.09;5029192;28;20069;-68
2021/07/16 09:14:35;;;;;;;10.30;9.25;;;;;;;30.39;41.42;98773.63;5043332;28;20099;-68
2021/07/16 09:17:09;;;;;;;11.07;9.63;;;;;;;30.43;40.95;98768.94;5033183;28;20048;-70
2021/07/16 09:19:43;;;;;;;10.48;9.40;;;;;;;30.37;42.06;98773.22;5050970;28;20135;-69
2021/07/16 09:22:15;;;;;;;11.98;9.68;;;;;;;30.00;42.13;98774.19;5051630;28;20041;-69
2021/07/16 09:24:58;;;;;;;11.00;9.27;;;;;;;29.85;42.43;98764.34;5049261;28;20036;-69
2021/07/16 09:27:30;;;;;;;10.10;9.10;;;;;;;30.06;41.29;98769.94;5048664;28;20045;-69
2021/07/16 09:30:22;;;;;;;9.80;8.88;;;;;;;30.23;39.14;98767.69;5049631;28;20045;-69
2021/07/16 09:32:55;;;;;;;9.15;8.25;;;;;;;30.31;39.96;98774.75;5045520;28;20398;-69
2021/07/16 09:35:29;;;;;;;9.68;8.73;;;;;;;30.31;39.72;98781.00;5030884;28;20063;-70
2021/07/16 09:37:59;;;;;;;10.38;8.95;;;;;;;30.29;39.65;98777.84;5049094;28;20418;-70
2021/07/16 09:40:27;;;;;;;10.07;9.07;;;;;;;30.22;40.25;98761.44;5064924;28;20561;-70
2021/07/16 09:43:04;;;;;;;12.75;9.73;;;;;;;30.28;41.20;98772.78;5047655;28;20520;-70
2021/07/16 09:45:30;;;;;;;15.35;10.43;;;;;;;30.33;41.15;98772.41;5050260;28;20457;-71
2021/07/16 09:47:57;;;;;;;10.52;9.63;;;;;;;30.33;40.28;98762.25;5046999;28;20130;-70
2021/07/16 09:50:24;;;;;;;11.52;9.85;;;;;;;30.42;39.71;98755.66;5047734;28;20037;-71
2021/07/16 09:53:19;;;;;;;10.90;9.80;;;;;;;30.45;39.72;98763.09;5031631;28;20449;-71
2021/07/16 09:55:45;;;;;;;10.30;9.40;;;;;;;30.51;40.14;98747.88;5047606;28;20041;-71
2021/07/16 09:58:31;;;;;;;9.52;8.68;;;;;;;30.55;39.32;98746.69;5046141;28;20417;-70
2021/07/16 10:00:57;;;;;;;9.23;8.27;;;;;;;30.58;37.67;98750.59;5030270;28;20417;-70
2021/07/16 10:03:23;;;;;;;9.27;8.38;;;;;;;30.61;36.86;98755.31;5045785;28;20033;-70
2021/07/16 10:05:50;;;;;;;9.48;8.63;;;;;;;30.72;37.72;98755.34;5047555;28;20662;-69
2021/07/16 10:08:17;;;;;;;10.20;9.30;;;;;;;30.82;38.42;98745.59;5050058;28;20053;-70
2021/07/16 10:10:46;;;;;;;10.40;9.43;;;;;;;30.84;38.19;98741.31;5048713;28;20037;-70
2021/07/16 10:13:12;;;;;;;10.23;9.23;;;;;;;30.92;38.63;98737.41;5050696;28;20084;-70
2021/07/16 10:15:38;;;;;;;10.45;9.45;;;;;;;30.92;38.48;98739.38;5048331;28;20041;-70
2021/07/16 10:18:07;;;;;;;10.02;9.13;;;;;;;30.83;38.05;98734.28;5032505;28;20049;-70
2021/07/16 10:20:35;;;;;;;10.18;9.18;;;;;;;30.84;37.61;98733.09;5032327;28;20502;-71
2021/07/16 10:23:02;;;;;;;12.00;9.63;;;;;;;30.94;38.52;98723.34;5049676;28;20048;-71
2021/07/16 10:25:28;;;;;;;9.82;8.90;;;;;;;31.07;38.18;98729.22;5049463;28;20045;-69
2021/07/16 10:27:54;;;;;;;10.50;9.50;;;;;;;31.16;37.51;98704.97;5031189;28;20044;-71
2021/07/16 10:30:21;;;;;;;9.70;8.82;;;;;;;31.22;37.54;98712.38;5016115;28;20128;-70
2021/07/16 10:32:49;;;;;;;10.50;9.60;;;;;;;31.17;37.76;98712.78;5048470;28;20056;-70
2021/07/16 10:35:22;;;;;;;10.48;9.45;;;;;;;31.23;38.70;98713.16;5031445;28;20047;-70
2021/07/16 10:37:51;;;;;;;11.35;10.25;;;;;;;31.18;38.15;98721.78;5029819;28;20468;-70
2021/07/16 10:40:43;;;;;;;11.48;9.52;;;;;;;30.95;38.50;98719.44;5048031;28;20416;-70
2021/07/16 10:43:32;;;;;;;11.20;9.93;;;;;;;30.94;39.47;98720.59;5046230;28;20061;-70
2021/07/16 10:46:00;;;;;;;11.00;9.95;;;;;;;30.93;39.30;98716.31;5042171;28;20049;-69
2021/07/16 10:48:31;;;;;;;11.20;10.20;;;;;;;30.97;38.81;98712.41;5046180;28;20084;-71
2021/07/16 10:50:58;;;;;;;9.95;8.90;;;;;;;30.98;37.32;98708.50;5062517;28;20079;-71
2021/07/16 10:53:27;;;;;;;10.20;9.18;;;;;;;31.00;35.67;98713.56;5010507;28;20569;-71
2021/07/16 10:55:56;;;;;;;9.27;8.48;;;;;;;31.03;36.34;98706.53;5009745;28;20099;-71
2021/07/16 10:58:28;;;;;;;9.33;8.43;;;;;;;31.15;35.49;98695.97;5037797;28;20494;-70
2021/07/16 11:00:57;;;;;;;9.63;8.65;;;;;;;31.19;34.53;98694.00;5027927;28;20037;-71
2021/07/16 11:03:36;;;;;;;9.80;8.68;;;;;;;31.22;34.95;98689.72;5026508;28;20046;-71
2021/07/16 11:06:02;;;;;;;9.65;8.57;;;;;;;31.31;34.79;98689.31;5026423;28;20048;-72
2021/07/16 11:08:48;;;;;;;10.25;9.05;;;;;;;31.38;35.07;98694.78;5009639;28;20478;-72
2021/07/16 11:11:41;;;;;;;9.82;8.80;;;;;;;31.40;34.03;98682.28;5008787;28;20053;-72
2021/07/16 11:14:20;;;;;;;9.18;8.38;;;;;;;31.53;34.50;98679.88;5027740;28;20045;-72
2021/07/16 11:16:47;;;;;;;9.02;8.23;;;;;;;31.64;33.53;98671.66;5027320;28;20051;-71
2021/07/16 11:19:12;;;;;;;10.13;8.98;;;;;;;31.74;33.85;98678.25;5027658;28;20064;-72
2021/07/16 11:21:52;;;;;;;9.65;8.85;;;;;;;31.95;33.67;98678.22;5010948;28;20475;-71